createdAt,value
2019-01-08T00:04:42.489Z,102182.02
2019-01-08T00:09:44.038Z,102180.36
2019-01-08T00:14:45.547Z,102181.11
2019-01-08T00:19:47.137Z,102171.77
2019-01-08T00:24:48.661Z,102155.16
2019-01-08T00:29:50.209Z,102154.42
2019-01-08T00:34:51.738Z,102154.73
2019-01-08T00:39:53.289Z,102153.77
2019-01-08T00:44:54.822Z,102156.25
2019-01-08T00:49:56.776Z,102140.25
2019-01-08T00:54:58.339Z,102147.62
2019-01-08T01:00:00.349Z,102135.19
2019-01-08T01:05:01.910Z,102127.96
2019-01-08T01:10:04.194Z,102138.89
2019-01-08T01:15:06.149Z,102125.81
2019-01-08T01:20:07.724Z,102124.55
2019-01-08T01:25:09.324Z,102121.54
2019-01-08T01:30:10.873Z,102117.87
2019-01-08T01:35:12.405Z,102124.98
2019-01-08T01:40:14.263Z,102119.75
2019-01-08T01:45:16.647Z,102109.25
2019-01-08T01:50:18.200Z,102108.23
2019-01-08T01:55:19.756Z,102099.80
2019-01-08T02:00:21.327Z,102092.52
2019-01-08T02:05:22.991Z,102098.11
2019-01-08T02:10:24.818Z,102098.25
2019-01-08T02:15:27.102Z,102091.99
2019-01-08T02:20:28.633Z,102095.13
2019-01-08T02:25:30.215Z,102091.47
2019-01-08T02:30:32.213Z,102083.38
2019-01-08T02:35:33.708Z,102088.23
2019-01-08T02:40:35.309Z,102078.29
2019-01-08T02:45:36.949Z,102082.48
2019-01-08T02:50:38.491Z,102081.25
2019-01-08T02:55:39.990Z,102088.30
2019-01-08T03:00:41.582Z,102070.19
2019-01-08T03:05:43.186Z,102071.45
2019-01-08T03:10:45.079Z,102075.36
2019-01-08T03:15:46.631Z,102069.78
2019-01-08T03:20:48.167Z,102056.58
2019-01-08T03:25:49.719Z,102046.90
2019-01-08T03:30:51.366Z,102050.74
2019-01-08T03:35:53.232Z,102042.81
2019-01-08T03:40:54.778Z,102034.11
2019-01-08T03:45:56.389Z,102034.16
2019-01-08T03:50:57.954Z,102013.56
2019-01-08T03:55:59.496Z,102008.08
2019-01-08T04:01:01.117Z,101999.54
2019-01-08T04:06:02.604Z,102003.46
2019-01-08T04:11:04.288Z,101999.18
2019-01-08T04:16:05.838Z,101989.81
2019-01-08T04:21:07.411Z,101992.42
2019-01-08T04:26:08.996Z,101972.83
2019-01-08T04:31:10.542Z,101965.89
2019-01-08T04:36:12.078Z,101957.56
2019-01-08T04:41:13.583Z,101945.87
2019-01-08T04:46:15.469Z,101947.67
2019-01-08T04:51:17.396Z,101955.91
2019-01-08T04:56:18.937Z,101929.26
2019-01-08T05:01:20.816Z,101944.42
2019-01-08T05:06:22.387Z,101942.50
2019-01-08T05:11:23.940Z,101938.00
2019-01-08T05:16:25.508Z,101923.88
2019-01-08T05:21:27.410Z,101915.33
2019-01-08T05:26:28.965Z,101912.43
2019-01-08T05:31:30.995Z,101913.12
2019-01-08T05:36:32.919Z,101896.66
2019-01-08T05:41:34.561Z,101898.53
2019-01-08T05:46:36.119Z,101929.53
2019-01-08T05:51:37.757Z,101939.59
2019-01-08T05:56:39.294Z,101918.47
2019-01-08T06:01:41.271Z,101914.53
2019-01-08T06:06:42.818Z,101901.72
2019-01-08T06:11:44.330Z,101895.04
2019-01-08T06:16:45.869Z,101900.16
2019-01-08T06:21:47.828Z,101940.05
2019-01-08T06:26:49.653Z,101911.08
2019-01-08T06:31:51.399Z,101915.19
2019-01-08T06:36:52.977Z,101901.92
2019-01-08T06:41:54.510Z,101902.56
2019-01-08T06:46:56.076Z,101913.77
2019-01-08T06:51:57.702Z,101899.20
2019-01-08T06:56:59.366Z,101897.72
2019-01-08T07:02:00.909Z,101909.68
2019-01-08T07:07:02.482Z,101897.95
2019-01-08T07:12:04.009Z,101895.38
2019-01-08T07:17:06.673Z,101901.77
2019-01-08T07:22:08.209Z,101895.55
2019-01-08T07:27:16.337Z,101891.27
2019-01-08T07:32:13.390Z,101889.52
2019-01-08T07:37:16.061Z,101895.34
2019-01-08T07:42:17.928Z,101907.85
2019-01-08T07:47:19.845Z,101930.98
2019-01-08T07:52:21.392Z,101912.95
2019-01-08T07:57:24.192Z,101925.53
2019-01-08T08:02:25.766Z,101911.53
2019-01-08T08:07:27.702Z,101917.18
2019-01-08T08:12:29.276Z,101907.61
2019-01-08T08:17:30.838Z,101907.91
2019-01-08T08:22:32.906Z,101906.83
2019-01-08T08:27:34.627Z,101912.53
2019-01-08T08:32:37.531Z,101909.61
2019-01-08T08:37:39.502Z,101917.19
2019-01-08T08:42:41.031Z,101913.72
2019-01-08T08:47:42.585Z,101907.51
2019-01-08T08:52:44.524Z,101905.55
2019-01-08T08:57:46.093Z,101890.98
2019-01-08T09:02:47.638Z,101897.64
2019-01-08T09:07:50.294Z,101909.73
2019-01-08T09:12:51.826Z,101919.44
2019-01-08T09:17:53.379Z,101930.49
2019-01-08T09:22:54.950Z,101920.66
2019-01-08T09:27:57.743Z,101923.36
2019-01-08T09:32:59.315Z,101912.21
2019-01-08T09:38:01.038Z,101924.87
2019-01-08T09:43:02.633Z,101928.19
2019-01-08T09:48:04.606Z,101936.23
2019-01-08T09:53:06.505Z,101927.41
2019-01-08T09:58:08.097Z,101937.37
2019-01-08T10:03:09.642Z,101935.30
2019-01-08T10:08:11.983Z,101933.92
2019-01-08T10:13:13.542Z,101953.13
2019-01-08T10:18:15.096Z,101936.95
2019-01-08T10:23:16.616Z,101933.14
2019-01-08T10:28:18.173Z,101949.85
2019-01-08T10:33:19.705Z,101938.37
2019-01-08T10:38:21.256Z,101932.35
2019-01-08T10:43:22.874Z,101923.41
2019-01-08T10:48:24.418Z,101910.23
2019-01-08T10:53:31.218Z,101928.23
2019-01-08T10:58:33.571Z,101906.91
2019-01-08T11:03:38.210Z,101910.95
2019-01-08T11:08:39.972Z,101924.11
2019-01-08T11:13:41.631Z,101918.17
2019-01-08T11:18:43.183Z,101926.32
2019-01-08T11:23:45.193Z,101955.28
2019-01-08T11:28:47.705Z,101936.37
2019-01-08T11:33:49.409Z,101927.17
2019-01-08T11:38:50.953Z,101918.67
2019-01-08T11:43:53.506Z,101901.41
2019-01-08T11:48:55.447Z,101916.89
2019-01-08T11:53:57.012Z,101923.12
2019-01-08T11:58:58.558Z,101897.11
2019-01-08T12:04:00.103Z,101917.25
2019-01-08T12:09:01.642Z,101908.29
2019-01-08T12:14:03.160Z,101932.72
2019-01-08T12:19:04.740Z,101929.67
2019-01-08T12:24:06.283Z,101928.81
2019-01-08T12:29:07.886Z,101910.48
2019-01-08T12:34:09.412Z,101931.05
2019-01-08T12:39:10.967Z,101929.79
2019-01-08T12:44:12.503Z,101913.09
2019-01-08T12:49:14.007Z,101912.85
2019-01-08T12:54:15.979Z,101908.21
2019-01-08T12:59:17.518Z,101916.78
2019-01-08T13:04:20.496Z,101921.54
2019-01-08T13:09:22.000Z,101934.15
2019-01-08T13:14:23.552Z,101914.63
2019-01-08T13:19:25.093Z,101917.81
2019-01-08T13:24:27.046Z,101922.38
2019-01-08T13:29:28.554Z,101924.16
2019-01-08T13:34:30.135Z,101928.20
2019-01-08T13:39:32.016Z,101923.88
2019-01-08T13:44:33.539Z,101932.84
2019-01-08T13:49:35.096Z,101934.66
2019-01-08T13:54:36.606Z,101918.84
2019-01-08T13:59:38.490Z,101930.14
2019-01-08T14:04:40.186Z,101924.67
2019-01-08T14:09:41.733Z,101932.92
2019-01-08T14:14:43.366Z,101954.38
2019-01-08T14:19:44.933Z,101944.41
2019-01-08T14:24:46.530Z,101944.53
2019-01-08T14:29:48.086Z,101961.45
2019-01-08T14:34:49.645Z,101946.56
2019-01-08T14:39:51.218Z,101946.84
2019-01-08T14:44:53.059Z,101960.52
2019-01-08T14:49:54.745Z,101957.72
2019-01-08T14:54:56.318Z,101956.91
2019-01-08T14:59:57.878Z,101962.11
2019-01-08T15:04:59.403Z,101963.00
2019-01-08T15:10:01.104Z,101987.99
2019-01-08T15:15:03.094Z,102000.72
2019-01-08T15:20:04.849Z,101982.34
2019-01-08T15:25:06.476Z,102001.38
2019-01-08T15:30:08.840Z,101999.06
2019-01-08T15:35:10.388Z,102001.90
2019-01-08T15:40:11.978Z,102014.48
2019-01-08T15:45:13.503Z,102017.09
2019-01-08T15:50:15.057Z,102003.50
2019-01-08T15:55:16.560Z,102018.23
2019-01-08T16:00:18.125Z,102009.03
2019-01-08T16:05:19.628Z,102029.16
2019-01-08T16:10:21.338Z,102021.38
2019-01-08T16:15:22.880Z,102018.22
2019-01-08T16:20:24.544Z,102015.86
2019-01-08T16:25:26.114Z,102035.77
2019-01-08T16:30:28.476Z,102033.63
2019-01-08T16:35:30.051Z,102042.38
2019-01-08T16:40:31.635Z,102037.04
2019-01-08T16:45:33.377Z,102021.67
2019-01-08T16:50:34.943Z,102015.92
2019-01-08T16:55:36.488Z,102018.77
2019-01-08T17:00:38.116Z,102022.63
2019-01-08T17:05:39.681Z,102022.41
2019-01-08T17:10:41.518Z,102031.11
2019-01-08T17:15:43.175Z,102009.51
2019-01-08T17:20:44.767Z,102041.45
2019-01-08T17:25:48.064Z,102028.47
2019-01-08T17:30:50.186Z,102025.03
2019-01-08T17:35:51.785Z,102055.05
2019-01-08T17:40:53.316Z,102029.25
2019-01-08T17:45:54.864Z,102029.48
2019-01-08T17:50:56.663Z,102023.57
2019-01-08T17:55:58.181Z,102037.50
2019-01-08T18:01:03.197Z,102051.13
2019-01-08T18:06:04.741Z,102066.20
2019-01-08T18:11:06.754Z,102064.99
2019-01-08T18:16:08.330Z,102051.88
2019-01-08T18:21:09.965Z,102056.25
2019-01-08T18:26:11.551Z,102059.36
2019-01-08T18:31:13.066Z,102056.29
2019-01-08T18:36:14.615Z,102067.50
2019-01-08T18:41:16.230Z,102070.19
2019-01-08T18:46:17.813Z,102068.65
2019-01-08T18:51:20.979Z,102072.56
2019-01-08T18:56:22.577Z,102070.37
2019-01-08T19:01:24.659Z,102115.63
2019-01-08T19:06:26.234Z,102100.19
2019-01-08T19:11:30.286Z,102099.70
2019-01-08T19:16:32.804Z,102088.55
2019-01-08T19:21:36.231Z,102092.03
2019-01-08T19:26:39.751Z,102074.47
2019-01-08T19:31:41.833Z,102079.34
2019-01-08T19:36:43.470Z,102074.41
2019-01-08T19:41:45.220Z,102089.08
2019-01-08T19:46:46.889Z,102084.31
2019-01-08T19:51:48.548Z,102072.29
2019-01-08T19:56:53.088Z,102079.86
2019-01-08T20:01:55.083Z,102086.23
2019-01-08T20:06:57.220Z,102084.61
2019-01-08T20:11:59.063Z,102068.91
2019-01-08T20:17:00.739Z,102075.00
2019-01-08T20:22:02.335Z,102084.11
2019-01-08T20:27:04.404Z,102085.41
2019-01-08T20:32:06.037Z,102078.42
2019-01-08T20:37:07.593Z,102079.48
2019-01-08T20:42:09.635Z,102089.57
2019-01-08T20:47:11.361Z,102090.93
2019-01-08T20:52:13.391Z,102092.47
2019-01-08T20:57:14.956Z,102089.77
2019-01-08T21:02:16.520Z,102088.39
2019-01-08T21:07:18.495Z,102083.20
2019-01-08T21:12:20.249Z,102064.65
2019-01-08T21:17:22.062Z,102054.05
2019-01-08T21:22:24.291Z,102067.41
2019-01-08T21:27:26.129Z,102062.47
2019-01-08T21:32:29.141Z,102064.77
2019-01-08T21:37:30.713Z,102075.61
2019-01-08T21:42:32.725Z,102063.84
2019-01-08T21:47:34.320Z,102063.33
2019-01-08T21:52:36.063Z,102067.91
2019-01-08T21:57:37.672Z,102070.55
2019-01-08T22:02:39.215Z,102070.55
2019-01-08T22:07:41.256Z,102080.19
2019-01-08T22:12:43.099Z,102071.52
2019-01-08T22:17:45.203Z,102057.57
2019-01-08T22:22:52.459Z,102060.04
2019-01-08T22:27:50.180Z,102047.48
2019-01-08T22:32:51.755Z,102052.78
2019-01-08T22:37:53.293Z,102048.42
2019-01-08T22:42:54.799Z,102039.94
2019-01-08T22:47:56.454Z,102038.04
2019-01-08T22:52:58.246Z,102030.90
2019-01-08T22:58:01.968Z,102041.20
2019-01-08T23:03:03.341Z,102056.86
2019-01-08T23:08:04.855Z,102037.16
2019-01-08T23:13:06.970Z,102039.16
2019-01-08T23:18:08.485Z,102047.75
2019-01-08T23:23:10.110Z,102043.53
2019-01-08T23:28:11.655Z,102043.73
2019-01-08T23:33:13.194Z,102031.69
2019-01-08T23:38:14.737Z,102030.28
2019-01-08T23:43:16.817Z,102026.93
2019-01-08T23:48:18.442Z,102030.45
2019-01-08T23:53:28.365Z,102018.38
2019-01-08T23:58:29.899Z,102022.11
